sensor_id;sensor_type;location;lat;lon;timestamp;pressure;altitude;pressure_sealevel;temperature;humidity
62928;BME280;51070;52.236;-0.892;2023-03-02T00:04:18;101802.08;;;5.44;94.44
62928;BME280;51070;52.236;-0.892;2023-03-02T00:06:45;101804.42;;;5.39;94.14
62928;BME280;51070;52.236;-0.892;2023-03-02T00:09:12;101799.84;;;5.31;93.92
62928;BME280;51070;52.236;-0.892;2023-03-02T00:11:38;101799.66;;;5.24;92.63
62928;BME280;51070;52.236;-0.892;2023-03-02T00:14:04;101801.92;;;5.20;91.83
62928;BME280;51070;52.236;-0.892;2023-03-02T00:16:29;101800.92;;;5.16;90.23
62928;BME280;51070;52.236;-0.892;2023-03-02T00:18:54;101800.80;;;5.12;89.75
62928;BME280;51070;52.236;-0.892;2023-03-02T00:21:19;101799.73;;;5.11;89.77
62928;BME280;51070;52.236;-0.892;2023-03-02T00:23:45;101797.50;;;5.11;89.19
62928;BME280;51070;52.236;-0.892;2023-03-02T00:26:10;101799.56;;;5.11;88.76
62928;BME280;51070;52.236;-0.892;2023-03-02T00:28:35;101800.94;;;5.08;88.55
62928;BME280;51070;52.236;-0.892;2023-03-02T00:31:04;101800.91;;;5.08;88.54
62928;BME280;51070;52.236;-0.892;2023-03-02T00:33:30;101805.35;;;5.08;88.47
62928;BME280;51070;52.236;-0.892;2023-03-02T00:35:55;101806.61;;;5.09;88.35
62928;BME280;51070;52.236;-0.892;2023-03-02T00:38:20;101802.17;;;5.09;88.12
62928;BME280;51070;52.236;-0.892;2023-03-02T00:40:46;101804.40;;;5.06;87.97
62928;BME280;51070;52.236;-0.892;2023-03-02T00:43:13;101802.59;;;5.05;88.20
62928;BME280;51070;52.236;-0.892;2023-03-02T00:45:38;101809.09;;;5.05;88.63
62928;BME280;51070;52.236;-0.892;2023-03-02T00:48:03;101806.86;;;5.07;89.35
62928;BME280;51070;52.236;-0.892;2023-03-02T00:50:29;101803.02;;;5.09;89.67
62928;BME280;51070;52.236;-0.892;2023-03-02T00:52:54;101800.60;;;5.08;90.27
62928;BME280;51070;52.236;-0.892;2023-03-02T00:55:19;101805.16;;;5.10;90.68
62928;BME280;51070;52.236;-0.892;2023-03-02T00:57:45;101798.82;;;5.10;91.07
62928;BME280;51070;52.236;-0.892;2023-03-02T01:00:19;101800.13;;;5.09;91.12
62928;BME280;51070;52.236;-0.892;2023-03-02T01:02:45;101798.88;;;5.08;91.42
62928;BME280;51070;52.236;-0.892;2023-03-02T01:05:10;101802.05;;;5.07;91.81
62928;BME280;51070;52.236;-0.892;2023-03-02T01:07:35;101801.32;;;5.06;92.25
62928;BME280;51070;52.236;-0.892;2023-03-02T01:10:04;101796.05;;;5.05;92.59
62928;BME280;51070;52.236;-0.892;2023-03-02T01:12:30;101799.38;;;5.03;92.73
62928;BME280;51070;52.236;-0.892;2023-03-02T01:14:56;101797.99;;;5.03;92.70
62928;BME280;51070;52.236;-0.892;2023-03-02T01:17:21;101799.27;;;5.04;93.03
62928;BME280;51070;52.236;-0.892;2023-03-02T01:19:46;101802.40;;;5.05;93.08
62928;BME280;51070;52.236;-0.892;2023-03-02T01:22:12;101798.71;;;5.06;93.28
62928;BME280;51070;52.236;-0.892;2023-03-02T01:24:38;101801.17;;;5.07;93.02
62928;BME280;51070;52.236;-0.892;2023-03-02T01:27:03;101802.81;;;5.08;92.58
62928;BME280;51070;52.236;-0.892;2023-03-02T01:29:28;101802.02;;;5.12;91.99
62928;BME280;51070;52.236;-0.892;2023-03-02T01:31:53;101803.67;;;5.14;91.77
62928;BME280;51070;52.236;-0.892;2023-03-02T01:34:19;101803.73;;;5.16;91.67
62928;BME280;51070;52.236;-0.892;2023-03-02T01:36:44;101802.42;;;5.15;91.60
62928;BME280;51070;52.236;-0.892;2023-03-02T01:39:10;101803.92;;;5.14;91.57
62928;BME280;51070;52.236;-0.892;2023-03-02T01:41:40;101804.69;;;5.13;91.53
62928;BME280;51070;52.236;-0.892;2023-03-02T01:44:07;101801.48;;;5.11;91.27
62928;BME280;51070;52.236;-0.892;2023-03-02T01:46:50;101802.33;;;5.09;90.92
62928;BME280;51070;52.236;-0.892;2023-03-02T01:49:15;101800.17;;;5.07;90.37
62928;BME280;51070;52.236;-0.892;2023-03-02T01:51:42;101795.36;;;5.05;89.88
62928;BME280;51070;52.236;-0.892;2023-03-02T01:54:10;101793.29;;;5.02;89.58
62928;BME280;51070;52.236;-0.892;2023-03-02T01:56:41;101784.16;;;4.99;89.45
62928;BME280;51070;52.236;-0.892;2023-03-02T01:59:08;101783.95;;;4.96;89.20
62928;BME280;51070;52.236;-0.892;2023-03-02T02:01:36;101783.42;;;4.96;89.30
62928;BME280;51070;52.236;-0.892;2023-03-02T02:04:03;101782.62;;;4.97;89.31
62928;BME280;51070;52.236;-0.892;2023-03-02T02:06:33;101780.84;;;4.98;89.25
62928;BME280;51070;52.236;-0.892;2023-03-02T02:09:00;101776.34;;;5.00;89.54
62928;BME280;51070;52.236;-0.892;2023-03-02T02:11:27;101775.36;;;5.03;89.57
62928;BME280;51070;52.236;-0.892;2023-03-02T02:13:54;101771.61;;;5.05;89.72
62928;BME280;51070;52.236;-0.892;2023-03-02T02:16:20;101772.36;;;5.09;89.65
62928;BME280;51070;52.236;-0.892;2023-03-02T02:18:45;101769.00;;;5.12;89.73
62928;BME280;51070;52.236;-0.892;2023-03-02T02:21:11;101769.84;;;5.17;89.63
62928;BME280;51070;52.236;-0.892;2023-03-02T02:26:03;101758.13;;;5.18;88.84
62928;BME280;51070;52.236;-0.892;2023-03-02T02:28:36;101758.17;;;5.17;88.71
62928;BME280;51070;52.236;-0.892;2023-03-02T02:31:12;101763.25;;;5.14;88.60
62928;BME280;51070;52.236;-0.892;2023-03-02T02:33:39;101766.48;;;5.09;88.30
62928;BME280;51070;52.236;-0.892;2023-03-02T02:36:08;101766.29;;;5.05;88.26
62928;BME280;51070;52.236;-0.892;2023-03-02T02:38:37;101764.56;;;5.03;87.86
62928;BME280;51070;52.236;-0.892;2023-03-02T02:41:04;101764.73;;;5.01;87.82
62928;BME280;51070;52.236;-0.892;2023-03-02T02:43:30;101761.30;;;5.00;87.79
62928;BME280;51070;52.236;-0.892;2023-03-02T02:45:56;101763.77;;;4.99;87.06
62928;BME280;51070;52.236;-0.892;2023-03-02T02:48:23;101764.16;;;4.97;86.36
62928;BME280;51070;52.236;-0.892;2023-03-02T02:50:48;101764.64;;;4.94;85.93
62928;BME280;51070;52.236;-0.892;2023-03-02T02:55:42;101762.85;;;4.84;85.06
62928;BME280;51070;52.236;-0.892;2023-03-02T03:00:50;101761.18;;;4.68;84.61
62928;BME280;51070;52.236;-0.892;2023-03-02T03:03:26;101765.73;;;4.62;84.64
62928;BME280;51070;52.236;-0.892;2023-03-02T03:05:57;101763.42;;;4.56;84.32
62928;BME280;51070;52.236;-0.892;2023-03-02T03:11:07;101768.20;;;4.47;84.01
62928;BME280;51070;52.236;-0.892;2023-03-02T03:13:33;101767.04;;;4.42;83.64
62928;BME280;51070;52.236;-0.892;2023-03-02T03:15:59;101768.36;;;4.37;83.89
62928;BME280;51070;52.236;-0.892;2023-03-02T03:18:25;101765.81;;;4.33;83.89
62928;BME280;51070;52.236;-0.892;2023-03-02T03:20:50;101764.64;;;4.29;84.29
62928;BME280;51070;52.236;-0.892;2023-03-02T03:23:16;101763.14;;;4.27;84.40
62928;BME280;51070;52.236;-0.892;2023-03-02T03:25:41;101766.38;;;4.25;84.36
62928;BME280;51070;52.236;-0.892;2023-03-02T03:28:06;101765.44;;;4.21;84.52
62928;BME280;51070;52.236;-0.892;2023-03-02T03:30:31;101768.84;;;4.18;84.50
62928;BME280;51070;52.236;-0.892;2023-03-02T03:32:57;101767.09;;;4.15;84.32
62928;BME280;51070;52.236;-0.892;2023-03-02T03:35:22;101763.66;;;4.15;84.18
62928;BME280;51070;52.236;-0.892;2023-03-02T03:37:47;101765.23;;;4.16;84.01
62928;BME280;51070;52.236;-0.892;2023-03-02T03:40:14;101764.02;;;4.18;84.21
62928;BME280;51070;52.236;-0.892;2023-03-02T03:42:39;101764.91;;;4.18;83.77
62928;BME280;51070;52.236;-0.892;2023-03-02T03:45:05;101765.16;;;4.17;83.38
62928;BME280;51070;52.236;-0.892;2023-03-02T03:47:31;101767.25;;;4.18;83.65
62928;BME280;51070;52.236;-0.892;2023-03-02T03:49:56;101763.38;;;4.16;83.47
62928;BME280;51070;52.236;-0.892;2023-03-02T03:52:21;101762.61;;;4.15;83.18
62928;BME280;51070;52.236;-0.892;2023-03-02T03:54:58;101763.91;;;4.14;83.06
62928;BME280;51070;52.236;-0.892;2023-03-02T03:57:24;101767.05;;;4.12;83.50
62928;BME280;51070;52.236;-0.892;2023-03-02T03:59:50;101769.77;;;4.12;83.24
62928;BME280;51070;52.236;-0.892;2023-03-02T04:02:15;101767.92;;;4.11;83.43
62928;BME280;51070;52.236;-0.892;2023-03-02T04:04:40;101767.67;;;4.10;83.11
62928;BME280;51070;52.236;-0.892;2023-03-02T04:07:06;101767.02;;;4.08;83.07
62928;BME280;51070;52.236;-0.892;2023-03-02T04:09:31;101769.34;;;4.07;82.86
62928;BME280;51070;52.236;-0.892;2023-03-02T04:12:01;101773.41;;;4.04;82.61
62928;BME280;51070;52.236;-0.892;2023-03-02T04:14:27;101775.15;;;4.02;82.59
62928;BME280;51070;52.236;-0.892;2023-03-02T04:16:52;101776.27;;;4.01;82.43
62928;BME280;51070;52.236;-0.892;2023-03-02T04:19:18;101774.73;;;4.01;82.68
62928;BME280;51070;52.236;-0.892;2023-03-02T04:21:44;101777.59;;;4.03;82.68
62928;BME280;51070;52.236;-0.892;2023-03-02T04:24:11;101780.63;;;4.04;82.55
62928;BME280;51070;52.236;-0.892;2023-03-02T04:26:37;101780.67;;;4.07;82.77
62928;BME280;51070;52.236;-0.892;2023-03-02T04:29:03;101783.81;;;4.10;82.40
62928;BME280;51070;52.236;-0.892;2023-03-02T04:31:29;101780.40;;;4.10;82.42
62928;BME280;51070;52.236;-0.892;2023-03-02T04:33:55;101786.21;;;4.10;82.30
62928;BME280;51070;52.236;-0.892;2023-03-02T04:36:21;101785.54;;;4.08;82.30
62928;BME280;51070;52.236;-0.892;2023-03-02T04:38:46;101786.54;;;4.06;82.04
62928;BME280;51070;52.236;-0.892;2023-03-02T04:41:12;101791.05;;;4.04;82.13
62928;BME280;51070;52.236;-0.892;2023-03-02T04:43:37;101796.05;;;4.03;82.21
62928;BME280;51070;52.236;-0.892;2023-03-02T04:46:02;101793.49;;;4.03;82.54
62928;BME280;51070;52.236;-0.892;2023-03-02T04:48:28;101789.77;;;4.03;82.68
62928;BME280;51070;52.236;-0.892;2023-03-02T04:50:54;101793.29;;;4.04;82.23
62928;BME280;51070;52.236;-0.892;2023-03-02T04:53:19;101796.92;;;4.05;82.13
62928;BME280;51070;52.236;-0.892;2023-03-02T04:55:44;101791.34;;;4.06;82.29
62928;BME280;51070;52.236;-0.892;2023-03-02T04:58:09;101789.83;;;4.08;82.23
62928;BME280;51070;52.236;-0.892;2023-03-02T05:00:35;101788.72;;;4.09;82.05
62928;BME280;51070;52.236;-0.892;2023-03-02T05:03:01;101786.08;;;4.09;81.96
62928;BME280;51070;52.236;-0.892;2023-03-02T05:05:28;101793.88;;;4.08;81.81
62928;BME280;51070;52.236;-0.892;2023-03-02T05:07:53;101789.52;;;4.07;81.81
62928;BME280;51070;52.236;-0.892;2023-03-02T05:10:19;101789.78;;;4.06;81.73
62928;BME280;51070;52.236;-0.892;2023-03-02T05:12:45;101779.94;;;4.04;81.82
62928;BME280;51070;52.236;-0.892;2023-03-02T05:15:33;101781.67;;;4.00;81.61
62928;BME280;51070;52.236;-0.892;2023-03-02T05:17:59;101779.90;;;3.99;81.73
62928;BME280;51070;52.236;-0.892;2023-03-02T05:20:24;101777.52;;;3.99;81.72
62928;BME280;51070;52.236;-0.892;2023-03-02T05:22:54;101776.67;;;4.00;81.90
62928;BME280;51070;52.236;-0.892;2023-03-02T05:25:20;101774.20;;;4.01;81.92
62928;BME280;51070;52.236;-0.892;2023-03-02T05:27:46;101772.36;;;4.04;82.04
62928;BME280;51070;52.236;-0.892;2023-03-02T05:30:12;101773.36;;;4.06;81.82
62928;BME280;51070;52.236;-0.892;2023-03-02T05:32:37;101776.39;;;4.07;81.81
62928;BME280;51070;52.236;-0.892;2023-03-02T05:35:02;101778.53;;;4.08;81.86
62928;BME280;51070;52.236;-0.892;2023-03-02T05:37:28;101777.38;;;4.09;81.71
62928;BME280;51070;52.236;-0.892;2023-03-02T05:39:53;101779.02;;;4.08;81.37
62928;BME280;51070;52.236;-0.892;2023-03-02T05:42:18;101782.39;;;4.07;81.39
62928;BME280;51070;52.236;-0.892;2023-03-02T05:44:44;101781.00;;;4.05;81.14
62928;BME280;51070;52.236;-0.892;2023-03-02T05:47:09;101780.36;;;4.03;80.97
62928;BME280;51070;52.236;-0.892;2023-03-02T05:49:34;101779.77;;;4.00;80.91
62928;BME280;51070;52.236;-0.892;2023-03-02T05:51:59;101780.48;;;3.98;80.82
62928;BME280;51070;52.236;-0.892;2023-03-02T05:54:24;101777.72;;;3.95;80.93
62928;BME280;51070;52.236;-0.892;2023-03-02T05:56:50;101779.19;;;3.95;80.74
62928;BME280;51070;52.236;-0.892;2023-03-02T05:59:15;101779.33;;;3.92;80.68
62928;BME280;51070;52.236;-0.892;2023-03-02T06:01:40;101780.12;;;3.91;80.53
62928;BME280;51070;52.236;-0.892;2023-03-02T06:04:05;101782.66;;;3.93;80.91
62928;BME280;51070;52.236;-0.892;2023-03-02T06:06:31;101782.30;;;3.95;81.03
62928;BME280;51070;52.236;-0.892;2023-03-02T06:08:56;101780.97;;;3.98;81.06
62928;BME280;51070;52.236;-0.892;2023-03-02T06:11:21;101780.75;;;3.99;81.03
62928;BME280;51070;52.236;-0.892;2023-03-02T06:13:46;101783.23;;;4.01;80.79
62928;BME280;51070;52.236;-0.892;2023-03-02T06:16:12;101780.71;;;4.01;80.98
62928;BME280;51070;52.236;-0.892;2023-03-02T06:18:37;101786.77;;;4.02;80.74
62928;BME280;51070;52.236;-0.892;2023-03-02T06:21:02;101788.54;;;4.03;81.02
62928;BME280;51070;52.236;-0.892;2023-03-02T06:23:28;101792.02;;;4.04;80.86
62928;BME280;51070;52.236;-0.892;2023-03-02T06:25:53;101793.36;;;4.03;81.05
62928;BME280;51070;52.236;-0.892;2023-03-02T06:28:18;101789.16;;;4.02;80.39
62928;BME280;51070;52.236;-0.892;2023-03-02T06:30:45;101788.55;;;3.98;80.19
62928;BME280;51070;52.236;-0.892;2023-03-02T06:33:12;101792.44;;;3.96;80.38
62928;BME280;51070;52.236;-0.892;2023-03-02T06:35:38;101794.30;;;3.95;80.57
62928;BME280;51070;52.236;-0.892;2023-03-02T06:38:03;101797.33;;;3.97;80.43
62928;BME280;51070;52.236;-0.892;2023-03-02T06:40:28;101797.23;;;3.98;80.27
62928;BME280;51070;52.236;-0.892;2023-03-02T06:42:54;101793.98;;;4.00;80.58
62928;BME280;51070;52.236;-0.892;2023-03-02T06:45:19;101796.27;;;4.03;80.23
62928;BME280;51070;52.236;-0.892;2023-03-02T06:47:44;101796.91;;;4.05;80.57
62928;BME280;51070;52.236;-0.892;2023-03-02T06:50:10;101793.98;;;4.07;80.27
62928;BME280;51070;52.236;-0.892;2023-03-02T06:52:35;101795.16;;;4.09;80.39
62928;BME280;51070;52.236;-0.892;2023-03-02T06:55:01;101789.03;;;4.09;80.50
62928;BME280;51070;52.236;-0.892;2023-03-02T06:57:26;101788.59;;;4.10;80.25
62928;BME280;51070;52.236;-0.892;2023-03-02T06:59:58;101789.95;;;4.10;80.13
62928;BME280;51070;52.236;-0.892;2023-03-02T07:02:25;101791.67;;;4.10;79.98
62928;BME280;51070;52.236;-0.892;2023-03-02T07:04:50;101791.03;;;4.08;79.47
62928;BME280;51070;52.236;-0.892;2023-03-02T07:07:15;101795.40;;;4.07;79.69
62928;BME280;51070;52.236;-0.892;2023-03-02T07:09:41;101796.58;;;4.07;79.76
62928;BME280;51070;52.236;-0.892;2023-03-02T07:12:06;101801.81;;;4.07;79.45
62928;BME280;51070;52.236;-0.892;2023-03-02T07:14:33;101799.65;;;4.07;79.71
62928;BME280;51070;52.236;-0.892;2023-03-02T07:16:58;101798.21;;;4.08;79.63
62928;BME280;51070;52.236;-0.892;2023-03-02T07:19:24;101794.13;;;4.11;79.31
62928;BME280;51070;52.236;-0.892;2023-03-02T07:21:49;101792.98;;;4.14;79.44
62928;BME280;51070;52.236;-0.892;2023-03-02T07:24:14;101792.31;;;4.19;79.42
62928;BME280;51070;52.236;-0.892;2023-03-02T07:26:39;101794.78;;;4.22;78.74
62928;BME280;51070;52.236;-0.892;2023-03-02T07:29:05;101798.93;;;4.25;78.42
62928;BME280;51070;52.236;-0.892;2023-03-02T07:31:30;101803.15;;;4.29;78.59
62928;BME280;51070;52.236;-0.892;2023-03-02T07:33:55;101804.27;;;4.32;78.40
62928;BME280;51070;52.236;-0.892;2023-03-02T07:36:21;101807.35;;;4.35;78.59
62928;BME280;51070;52.236;-0.892;2023-03-02T07:38:46;101808.29;;;4.38;78.72
62928;BME280;51070;52.236;-0.892;2023-03-02T07:41:13;101810.80;;;4.42;78.56
62928;BME280;51070;52.236;-0.892;2023-03-02T07:43:40;101804.77;;;4.46;77.95
62928;BME280;51070;52.236;-0.892;2023-03-02T07:46:06;101802.45;;;4.49;77.65
62928;BME280;51070;52.236;-0.892;2023-03-02T07:48:31;101805.95;;;4.50;77.32
62928;BME280;51070;52.236;-0.892;2023-03-02T07:51:01;101811.14;;;4.53;77.00
62928;BME280;51070;52.236;-0.892;2023-03-02T07:53:26;101809.61;;;4.56;76.93
62928;BME280;51070;52.236;-0.892;2023-03-02T07:55:52;101810.88;;;4.59;76.77
62928;BME280;51070;52.236;-0.892;2023-03-02T07:58:17;101812.23;;;4.63;76.92
62928;BME280;51070;52.236;-0.892;2023-03-02T08:00:42;101810.00;;;4.71;76.67
62928;BME280;51070;52.236;-0.892;2023-03-02T08:03:08;101806.80;;;4.78;76.81
62928;BME280;51070;52.236;-0.892;2023-03-02T08:05:33;101811.86;;;4.87;76.82
62928;BME280;51070;52.236;-0.892;2023-03-02T08:07:58;101807.45;;;4.94;76.34
62928;BME280;51070;52.236;-0.892;2023-03-02T08:10:23;101807.61;;;5.01;75.84
62928;BME280;51070;52.236;-0.892;2023-03-02T08:12:49;101811.02;;;5.05;75.43
62928;BME280;51070;52.236;-0.892;2023-03-02T08:15:14;101807.10;;;5.11;75.23
62928;BME280;51070;52.236;-0.892;2023-03-02T08:17:39;101807.80;;;5.18;74.80
62928;BME280;51070;52.236;-0.892;2023-03-02T08:20:05;101812.77;;;5.23;74.63
62928;BME280;51070;52.236;-0.892;2023-03-02T08:22:30;101808.52;;;5.28;74.98
62928;BME280;51070;52.236;-0.892;2023-03-02T08:24:56;101809.27;;;5.36;74.96
62928;BME280;51070;52.236;-0.892;2023-03-02T08:27:21;101808.11;;;5.44;74.14
62928;BME280;51070;52.236;-0.892;2023-03-02T08:29:46;101804.64;;;5.51;73.52
62928;BME280;51070;52.236;-0.892;2023-03-02T08:32:11;101803.60;;;5.61;73.73
62928;BME280;51070;52.236;-0.892;2023-03-02T08:34:37;101804.21;;;5.72;73.71
62928;BME280;51070;52.236;-0.892;2023-03-02T08:37:02;101810.36;;;5.84;73.15
62928;BME280;51070;52.236;-0.892;2023-03-02T08:39:27;101812.73;;;5.96;73.14
62928;BME280;51070;52.236;-0.892;2023-03-02T08:41:55;101810.67;;;6.06;72.92
62928;BME280;51070;52.236;-0.892;2023-03-02T08:44:20;101811.30;;;6.15;72.27
62928;BME280;51070;52.236;-0.892;2023-03-02T08:46:46;101817.82;;;6.23;71.75
62928;BME280;51070;52.236;-0.892;2023-03-02T08:49:13;101814.83;;;6.32;71.16
62928;BME280;51070;52.236;-0.892;2023-03-02T08:51:39;101813.77;;;6.42;71.48
62928;BME280;51070;52.236;-0.892;2023-03-02T08:54:04;101813.66;;;6.53;71.01
62928;BME280;51070;52.236;-0.892;2023-03-02T08:56:30;101815.76;;;6.61;70.76
62928;BME280;51070;52.236;-0.892;2023-03-02T08:59:06;101818.17;;;6.67;70.29
62928;BME280;51070;52.236;-0.892;2023-03-02T09:01:33;101813.69;;;6.72;69.95
62928;BME280;51070;52.236;-0.892;2023-03-02T09:03:59;101814.63;;;6.79;69.49
62928;BME280;51070;52.236;-0.892;2023-03-02T09:06:25;101811.55;;;6.92;69.24
62928;BME280;51070;52.236;-0.892;2023-03-02T09:08:51;101813.35;;;7.09;68.38
62928;BME280;51070;52.236;-0.892;2023-03-02T09:11:16;101814.84;;;7.25;68.42
62928;BME280;51070;52.236;-0.892;2023-03-02T09:13:41;101814.54;;;7.34;67.15
62928;BME280;51070;52.236;-0.892;2023-03-02T09:16:07;101815.24;;;7.40;66.52
62928;BME280;51070;52.236;-0.892;2023-03-02T09:18:33;101814.02;;;7.48;66.16
62928;BME280;51070;52.236;-0.892;2023-03-02T09:20:59;101816.90;;;7.55;65.62
62928;BME280;51070;52.236;-0.892;2023-03-02T09:23:24;101812.35;;;7.59;65.57
62928;BME280;51070;52.236;-0.892;2023-03-02T09:25:51;101814.03;;;7.59;65.70
62928;BME280;51070;52.236;-0.892;2023-03-02T09:28:16;101814.50;;;7.58;64.58
62928;BME280;51070;52.236;-0.892;2023-03-02T09:30:52;101812.86;;;7.59;64.41
62928;BME280;51070;52.236;-0.892;2023-03-02T09:33:18;101811.87;;;7.69;64.88
62928;BME280;51070;52.236;-0.892;2023-03-02T09:35:44;101812.50;;;7.76;64.24
62928;BME280;51070;52.236;-0.892;2023-03-02T09:38:10;101816.25;;;7.86;64.42
62928;BME280;51070;52.236;-0.892;2023-03-02T09:40:43;101809.01;;;7.95;64.02
62928;BME280;51070;52.236;-0.892;2023-03-02T09:43:27;101807.81;;;8.04;63.25
62928;BME280;51070;52.236;-0.892;2023-03-02T09:51:12;101816.11;;;8.25;62.67
62928;BME280;51070;52.236;-0.892;2023-03-02T09:53:50;101818.04;;;8.28;61.99
62928;BME280;51070;52.236;-0.892;2023-03-02T09:56:17;101815.85;;;8.26;61.48
62928;BME280;51070;52.236;-0.892;2023-03-02T09:59:04;101813.44;;;8.29;62.49
62928;BME280;51070;52.236;-0.892;2023-03-02T10:01:33;101817.55;;;8.31;62.03
62928;BME280;51070;52.236;-0.892;2023-03-02T10:04:16;101813.13;;;8.29;61.52
62928;BME280;51070;52.236;-0.892;2023-03-02T10:06:42;101813.70;;;8.33;62.01
62928;BME280;51070;52.236;-0.892;2023-03-02T10:09:08;101816.85;;;8.36;62.01
62928;BME280;51070;52.236;-0.892;2023-03-02T10:11:48;101812.17;;;8.42;62.31
62928;BME280;51070;52.236;-0.892;2023-03-02T10:14:25;101815.99;;;8.34;61.69
62928;BME280;51070;52.236;-0.892;2023-03-02T10:19:50;101825.83;;;8.17;60.91
62928;BME280;51070;52.236;-0.892;2023-03-02T10:22:20;101830.41;;;8.10;60.87
62928;BME280;51070;52.236;-0.892;2023-03-02T10:27:42;101830.31;;;8.29;61.27
62928;BME280;51070;52.236;-0.892;2023-03-02T10:30:15;101828.77;;;8.71;60.81
62928;BME280;51070;52.236;-0.892;2023-03-02T10:32:50;101837.17;;;9.30;59.38
62928;BME280;51070;52.236;-0.892;2023-03-02T10:35:19;101836.56;;;9.32;58.41
62928;BME280;51070;52.236;-0.892;2023-03-02T10:37:46;101837.10;;;9.19;58.72
62928;BME280;51070;52.236;-0.892;2023-03-02T10:40:45;101837.73;;;9.24;58.31
62928;BME280;51070;52.236;-0.892;2023-03-02T10:43:03;101841.38;;;9.09;58.34
62928;BME280;51070;52.236;-0.892;2023-03-02T10:45:30;101837.38;;;9.34;58.63
62928;BME280;51070;52.236;-0.892;2023-03-02T10:48:03;101831.86;;;10.29;57.44
62928;BME280;51070;52.236;-0.892;2023-03-02T10:50:29;101830.85;;;11.16;55.24
62928;BME280;51070;52.236;-0.892;2023-03-02T10:52:54;101828.82;;;11.84;54.40
62928;BME280;51070;52.236;-0.892;2023-03-02T10:55:20;101826.94;;;12.36;52.65
62928;BME280;51070;52.236;-0.892;2023-03-02T10:57:55;101829.02;;;12.74;51.63
62928;BME280;51070;52.236;-0.892;2023-03-02T11:00:23;101828.86;;;12.82;49.21
62928;BME280;51070;52.236;-0.892;2023-03-02T11:02:50;101829.58;;;12.50;50.38
62928;BME280;51070;52.236;-0.892;2023-03-02T11:07:50;101841.00;;;11.29;51.33
62928;BME280;51070;52.236;-0.892;2023-03-02T11:10:19;101842.58;;;10.94;51.74
62928;BME280;51070;52.236;-0.892;2023-03-02T11:12:46;101843.07;;;10.69;52.97
62928;BME280;51070;52.236;-0.892;2023-03-02T11:17:37;101837.23;;;10.12;54.69
62928;BME280;51070;52.236;-0.892;2023-03-02T11:20:04;101835.86;;;9.92;55.04
62928;BME280;51070;52.236;-0.892;2023-03-02T11:23:20;101835.92;;;9.81;55.61
62928;BME280;51070;52.236;-0.892;2023-03-02T11:25:35;101836.05;;;9.73;55.80
62928;BME280;51070;52.236;-0.892;2023-03-02T11:28:04;101833.04;;;9.98;56.20
62928;BME280;51070;52.236;-0.892;2023-03-02T11:30:34;101833.11;;;10.29;55.29
62928;BME280;51070;52.236;-0.892;2023-03-02T11:33:06;101833.53;;;10.54;54.30
62928;BME280;51070;52.236;-0.892;2023-03-02T11:38:31;101832.41;;;10.49;54.87
62928;BME280;51070;52.236;-0.892;2023-03-02T11:43:29;101827.60;;;11.06;54.18
62928;BME280;51070;52.236;-0.892;2023-03-02T11:45:57;101822.28;;;11.44;52.91
62928;BME280;51070;52.236;-0.892;2023-03-02T11:48:25;101818.90;;;11.64;52.84
62928;BME280;51070;52.236;-0.892;2023-03-02T11:50:56;101813.83;;;11.64;52.29
62928;BME280;51070;52.236;-0.892;2023-03-02T11:53:24;101818.57;;;11.61;51.84
62928;BME280;51070;52.236;-0.892;2023-03-02T11:55:51;101815.59;;;11.45;51.50
62928;BME280;51070;52.236;-0.892;2023-03-02T11:58:18;101814.88;;;11.33;51.96
62928;BME280;51070;52.236;-0.892;2023-03-02T12:00:44;101816.27;;;11.19;50.68
62928;BME280;51070;52.236;-0.892;2023-03-02T12:05:39;101823.20;;;10.94;50.95
62928;BME280;51070;52.236;-0.892;2023-03-02T12:08:06;101822.76;;;11.03;51.78
62928;BME280;51070;52.236;-0.892;2023-03-02T12:10:34;101815.27;;;10.94;51.60
62928;BME280;51070;52.236;-0.892;2023-03-02T12:13:06;101813.02;;;10.72;51.82
62928;BME280;51070;52.236;-0.892;2023-03-02T12:15:49;101817.84;;;10.45;52.53
62928;BME280;51070;52.236;-0.892;2023-03-02T12:23:23;101814.40;;;10.28;53.07
62928;BME280;51070;52.236;-0.892;2023-03-02T12:25:49;101814.02;;;10.24;52.62
62928;BME280;51070;52.236;-0.892;2023-03-02T12:28:26;101812.82;;;10.14;52.74
62928;BME280;51070;52.236;-0.892;2023-03-02T12:31:11;101809.02;;;10.14;52.96
62928;BME280;51070;52.236;-0.892;2023-03-02T12:33:39;101801.84;;;9.89;53.18
62928;BME280;51070;52.236;-0.892;2023-03-02T12:36:13;101802.06;;;9.94;53.39
62928;BME280;51070;52.236;-0.892;2023-03-02T12:38:40;101801.68;;;10.06;53.30
62928;BME280;51070;52.236;-0.892;2023-03-02T12:43:37;101803.88;;;10.42;53.66
62928;BME280;51070;52.236;-0.892;2023-03-02T12:49:22;101798.10;;;10.47;52.78
62928;BME280;51070;52.236;-0.892;2023-03-02T12:51:55;101797.34;;;10.56;52.02
62928;BME280;51070;52.236;-0.892;2023-03-02T12:54:22;101791.99;;;10.63;51.90
62928;BME280;51070;52.236;-0.892;2023-03-02T12:57:00;101791.22;;;10.73;52.19
62928;BME280;51070;52.236;-0.892;2023-03-02T12:59:26;101794.84;;;10.90;52.18
62928;BME280;51070;52.236;-0.892;2023-03-02T13:02:02;101789.48;;;11.15;52.26
62928;BME280;51070;52.236;-0.892;2023-03-02T13:04:28;101790.64;;;11.26;52.27
62928;BME280;51070;52.236;-0.892;2023-03-02T13:06:53;101787.80;;;11.20;52.80
62928;BME280;51070;52.236;-0.892;2023-03-02T13:09:19;101783.01;;;11.22;52.85
62928;BME280;51070;52.236;-0.892;2023-03-02T13:11:45;101789.20;;;11.17;52.34
62928;BME280;51070;52.236;-0.892;2023-03-02T13:16:51;101792.82;;;10.70;52.50
62928;BME280;51070;52.236;-0.892;2023-03-02T13:19:17;101793.59;;;10.50;53.25
62928;BME280;51070;52.236;-0.892;2023-03-02T13:21:43;101789.10;;;10.47;52.65
62928;BME280;51070;52.236;-0.892;2023-03-02T13:27:14;101782.69;;;10.61;52.65
62928;BME280;51070;52.236;-0.892;2023-03-02T13:29:40;101785.17;;;10.55;52.09
62928;BME280;51070;52.236;-0.892;2023-03-02T13:32:22;101787.98;;;10.38;51.95
62928;BME280;51070;52.236;-0.892;2023-03-02T13:34:52;101783.30;;;10.41;51.86
62928;BME280;51070;52.236;-0.892;2023-03-02T13:37:22;101780.20;;;10.59;52.20
62928;BME280;51070;52.236;-0.892;2023-03-02T13:39:53;101774.67;;;10.59;51.92
62928;BME280;51070;52.236;-0.892;2023-03-02T13:42:52;101781.10;;;10.42;52.30